sensor_id;sensor_type;location;lat;lon;timestamp;pressure;altitude;pressure_sealevel;temperature;humidity
63190;BME280;49286;44.460;26.114;2022-12-18T00:00:44;101336.50;;;4.56;100.00
63190;BME280;49286;44.460;26.114;2022-12-18T00:03:09;101404.25;;;5.04;100.00
63190;BME280;49286;44.460;26.114;2022-12-18T00:05:35;101435.03;;;5.16;100.00
63190;BME280;49286;44.460;26.114;2022-12-18T00:08:01;101441.47;;;5.26;100.00
63190;BME280;49286;44.460;26.114;2022-12-18T00:10:28;101286.75;;;4.47;100.00
63190;BME280;49286;44.460;26.114;2022-12-18T00:12:54;101446.78;;;5.29;100.00
63190;BME280;49286;44.460;26.114;2022-12-18T00:15:19;101387.78;;;5.05;100.00
63190;BME280;49286;44.460;26.114;2022-12-18T00:17:45;101417.78;;;5.18;100.00
63190;BME280;49286;44.460;26.114;2022-12-18T00:20:11;101450.66;;;5.39;100.00
63190;BME280;49286;44.460;26.114;2022-12-18T00:22:36;101454.94;;;5.38;100.00
63190;BME280;49286;44.460;26.114;2022-12-18T00:25:02;101404.50;;;5.11;100.00
63190;BME280;49286;44.460;26.114;2022-12-18T00:27:27;101350.41;;;4.57;100.00
63190;BME280;49286;44.460;26.114;2022-12-18T00:29:53;101356.97;;;4.70;100.00
63190;BME280;49286;44.460;26.114;2022-12-18T00:32:18;101435.38;;;5.03;100.00
63190;BME280;49286;44.460;26.114;2022-12-18T00:34:43;101408.09;;;4.92;100.00
63190;BME280;49286;44.460;26.114;2022-12-18T00:37:09;101463.44;;;5.33;100.00
63190;BME280;49286;44.460;26.114;2022-12-18T00:39:35;101324.63;;;4.63;100.00
63190;BME280;49286;44.460;26.114;2022-12-18T00:42:00;101477.63;;;5.41;100.00
63190;BME280;49286;44.460;26.114;2022-12-18T00:44:44;101467.22;;;5.18;100.00
63190;BME280;49286;44.460;26.114;2022-12-18T00:47:09;101485.91;;;5.31;100.00
63190;BME280;49286;44.460;26.114;2022-12-18T00:49:35;101303.56;;;4.12;100.00
63190;BME280;49286;44.460;26.114;2022-12-18T00:52:00;101478.97;;;5.31;100.00
63190;BME280;49286;44.460;26.114;2022-12-18T00:54:26;101439.00;;;5.06;100.00
63190;BME280;49286;44.460;26.114;2022-12-18T00:56:51;101346.22;;;4.39;100.00
63190;BME280;49286;44.460;26.114;2022-12-18T00:59:17;101485.44;;;5.18;100.00
63190;BME280;49286;44.460;26.114;2022-12-18T01:01:45;101488.09;;;5.20;100.00
63190;BME280;49286;44.460;26.114;2022-12-18T01:04:11;101494.88;;;5.16;100.00
63190;BME280;49286;44.460;26.114;2022-12-18T01:06:36;101340.63;;;4.29;100.00
63190;BME280;49286;44.460;26.114;2022-12-18T01:09:02;101472.53;;;4.99;100.00
63190;BME280;49286;44.460;26.114;2022-12-18T01:11:28;101500.00;;;5.15;100.00
63190;BME280;49286;44.460;26.114;2022-12-18T01:13:54;101485.59;;;5.23;100.00
63190;BME280;49286;44.460;26.114;2022-12-18T01:16:20;101493.84;;;4.69;100.00
63190;BME280;49286;44.460;26.114;2022-12-18T01:18:46;101490.41;;;4.91;100.00
63190;BME280;49286;44.460;26.114;2022-12-18T01:21:15;101515.03;;;4.99;100.00
63190;BME280;49286;44.460;26.114;2022-12-18T01:23:51;101488.19;;;5.00;100.00
63190;BME280;49286;44.460;26.114;2022-12-18T01:26:19;101520.09;;;4.96;100.00
63190;BME280;49286;44.460;26.114;2022-12-18T01:28:44;101393.44;;;4.08;100.00
63190;BME280;49286;44.460;26.114;2022-12-18T01:31:27;101384.75;;;3.87;100.00
63190;BME280;49286;44.460;26.114;2022-12-18T01:33:53;101378.22;;;3.75;100.00
63190;BME280;49286;44.460;26.114;2022-12-18T01:36:27;101512.63;;;4.62;100.00
63190;BME280;49286;44.460;26.114;2022-12-18T01:38:53;101381.53;;;3.92;100.00
63190;BME280;49286;44.460;26.114;2022-12-18T01:41:22;101423.97;;;4.14;100.00
63190;BME280;49286;44.460;26.114;2022-12-18T01:46:14;101509.63;;;4.53;100.00
63190;BME280;49286;44.460;26.114;2022-12-18T01:48:42;101521.31;;;4.62;100.00
63190;BME280;49286;44.460;26.114;2022-12-18T01:51:10;101551.06;;;4.29;100.00
63190;BME280;49286;44.460;26.114;2022-12-18T01:53:37;101557.94;;;4.48;100.00
63190;BME280;49286;44.460;26.114;2022-12-18T01:56:04;101416.88;;;3.50;100.00
63190;BME280;49286;44.460;26.114;2022-12-18T02:01:11;101424.53;;;3.66;100.00
63190;BME280;49286;44.460;26.114;2022-12-18T02:03:36;101533.25;;;4.18;100.00
63190;BME280;49286;44.460;26.114;2022-12-18T02:06:16;101555.91;;;4.40;100.00
63190;BME280;49286;44.460;26.114;2022-12-18T02:14:28;101587.38;;;4.68;100.00
63190;BME280;49286;44.460;26.114;2022-12-18T02:25:06;101570.44;;;4.37;100.00
63190;BME280;49286;44.460;26.114;2022-12-18T02:27:39;101615.00;;;4.65;100.00
63190;BME280;49286;44.460;26.114;2022-12-18T02:30:07;101467.25;;;3.74;100.00
63190;BME280;49286;44.460;26.114;2022-12-18T02:32:46;101572.31;;;4.20;100.00
63190;BME280;49286;44.460;26.114;2022-12-18T02:35:16;101522.78;;;3.96;100.00
63190;BME280;49286;44.460;26.114;2022-12-18T02:37:43;101428.69;;;3.63;100.00
63190;BME280;49286;44.460;26.114;2022-12-18T02:40:12;101469.94;;;3.76;100.00
63190;BME280;49286;44.460;26.114;2022-12-18T02:42:39;101625.63;;;4.51;100.00
63190;BME280;49286;44.460;26.114;2022-12-18T02:45:05;101580.38;;;4.07;100.00
63190;BME280;49286;44.460;26.114;2022-12-18T02:47:32;101480.25;;;3.55;100.00
63190;BME280;49286;44.460;26.114;2022-12-18T02:55:52;101653.34;;;4.50;100.00
63190;BME280;49286;44.460;26.114;2022-12-18T03:03:43;101590.28;;;3.96;100.00
63190;BME280;49286;44.460;26.114;2022-12-18T03:06:35;101663.03;;;4.35;100.00
63190;BME280;49286;44.460;26.114;2022-12-18T03:09:07;101542.88;;;3.63;100.00
63190;BME280;49286;44.460;26.114;2022-12-18T03:11:38;101697.34;;;4.47;100.00
63190;BME280;49286;44.460;26.114;2022-12-18T03:14:25;101694.63;;;4.44;100.00
63190;BME280;49286;44.460;26.114;2022-12-18T03:16:54;101560.91;;;3.59;100.00
63190;BME280;49286;44.460;26.114;2022-12-18T03:19:25;101709.25;;;4.42;100.00
63190;BME280;49286;44.460;26.114;2022-12-18T03:21:55;101585.88;;;3.57;100.00
63190;BME280;49286;44.460;26.114;2022-12-18T03:24:23;101585.34;;;3.65;100.00
63190;BME280;49286;44.460;26.114;2022-12-18T03:26:53;101706.94;;;4.29;100.00
63190;BME280;49286;44.460;26.114;2022-12-18T03:29:35;101721.69;;;4.30;100.00
63190;BME280;49286;44.460;26.114;2022-12-18T03:32:17;101618.34;;;3.67;100.00
63190;BME280;49286;44.460;26.114;2022-12-18T03:34:45;101691.50;;;4.14;100.00
63190;BME280;49286;44.460;26.114;2022-12-18T03:37:14;101730.03;;;4.22;100.00
63190;BME280;49286;44.460;26.114;2022-12-18T03:39:39;101588.13;;;3.50;100.00
63190;BME280;49286;44.460;26.114;2022-12-18T03:42:10;101670.16;;;4.01;100.00
63190;BME280;49286;44.460;26.114;2022-12-18T03:47:21;101733.13;;;4.33;100.00
63190;BME280;49286;44.460;26.114;2022-12-18T03:49:58;101737.06;;;4.25;100.00
63190;BME280;49286;44.460;26.114;2022-12-18T03:52:36;101748.81;;;3.99;100.00
63190;BME280;49286;44.460;26.114;2022-12-18T03:55:04;101729.28;;;4.07;100.00
63190;BME280;49286;44.460;26.114;2022-12-18T03:57:31;101615.56;;;3.45;100.00
63190;BME280;49286;44.460;26.114;2022-12-18T04:00:03;101770.84;;;4.25;100.00
63190;BME280;49286;44.460;26.114;2022-12-18T04:02:30;101752.97;;;4.13;100.00
63190;BME280;49286;44.460;26.114;2022-12-18T04:04:59;101619.56;;;3.38;100.00
63190;BME280;49286;44.460;26.114;2022-12-18T04:07:26;101777.00;;;4.27;100.00
63190;BME280;49286;44.460;26.114;2022-12-18T04:09:55;101730.56;;;3.97;100.00
63190;BME280;49286;44.460;26.114;2022-12-18T04:12:24;101710.69;;;3.80;100.00
63190;BME280;49286;44.460;26.114;2022-12-18T04:14:50;101795.94;;;4.25;100.00
63190;BME280;49286;44.460;26.114;2022-12-18T04:17:16;101659.41;;;3.22;100.00
63190;BME280;49286;44.460;26.114;2022-12-18T04:19:41;101803.19;;;3.78;100.00
63190;BME280;49286;44.460;26.114;2022-12-18T04:22:09;101802.75;;;3.87;100.00
63190;BME280;49286;44.460;26.114;2022-12-18T04:24:35;101667.41;;;3.27;100.00
63190;BME280;49286;44.460;26.114;2022-12-18T04:27:01;101827.69;;;4.19;100.00
63190;BME280;49286;44.460;26.114;2022-12-18T04:29:27;101813.88;;;4.02;100.00
63190;BME280;49286;44.460;26.114;2022-12-18T04:31:53;101685.25;;;3.03;100.00
63190;BME280;49286;44.460;26.114;2022-12-18T04:34:19;101707.94;;;3.25;100.00
63190;BME280;49286;44.460;26.114;2022-12-18T04:36:45;101837.44;;;4.05;100.00
63190;BME280;49286;44.460;26.114;2022-12-18T04:39:10;101812.69;;;3.77;100.00
63190;BME280;49286;44.460;26.114;2022-12-18T04:41:36;101712.63;;;3.14;100.00
63190;BME280;49286;44.460;26.114;2022-12-18T04:44:01;101863.00;;;3.97;100.00
63190;BME280;49286;44.460;26.114;2022-12-18T04:46:27;101717.66;;;2.78;100.00
63190;BME280;49286;44.460;26.114;2022-12-18T04:48:52;101874.25;;;3.80;100.00
63190;BME280;49286;44.460;26.114;2022-12-18T04:51:18;101878.88;;;3.69;100.00
63190;BME280;49286;44.460;26.114;2022-12-18T04:53:43;101885.56;;;3.48;100.00
63190;BME280;49286;44.460;26.114;2022-12-18T04:56:11;101834.75;;;3.19;100.00
63190;BME280;49286;44.460;26.114;2022-12-18T04:58:38;101847.84;;;3.38;100.00
63190;BME280;49286;44.460;26.114;2022-12-18T05:01:05;101752.31;;;2.80;100.00
63190;BME280;49286;44.460;26.114;2022-12-18T05:03:31;101739.28;;;2.62;100.00
63190;BME280;49286;44.460;26.114;2022-12-18T05:05:56;101832.44;;;3.08;100.00
63190;BME280;49286;44.460;26.114;2022-12-18T05:08:22;101888.22;;;3.16;100.00
63190;BME280;49286;44.460;26.114;2022-12-18T05:10:48;101744.03;;;2.38;100.00
63190;BME280;49286;44.460;26.114;2022-12-18T05:13:13;101802.66;;;2.52;100.00
63190;BME280;49286;44.460;26.114;2022-12-18T05:15:39;101873.91;;;2.92;100.00
63190;BME280;49286;44.460;26.114;2022-12-18T05:18:04;101899.31;;;2.98;100.00
63190;BME280;49286;44.460;26.114;2022-12-18T05:20:30;101926.03;;;3.28;100.00
63190;BME280;49286;44.460;26.114;2022-12-18T05:22:56;101906.31;;;3.48;100.00
63190;BME280;49286;44.460;26.114;2022-12-18T05:25:22;101801.53;;;2.95;100.00
63190;BME280;49286;44.460;26.114;2022-12-18T05:27:48;101824.41;;;2.87;100.00
63190;BME280;49286;44.460;26.114;2022-12-18T05:30:14;101950.34;;;3.63;100.00
63190;BME280;49286;44.460;26.114;2022-12-18T05:32:40;101939.56;;;3.55;100.00
63190;BME280;49286;44.460;26.114;2022-12-18T05:35:07;101828.50;;;3.15;100.00
63190;BME280;49286;44.460;26.114;2022-12-18T05:37:33;101831.41;;;3.21;100.00
63190;BME280;49286;44.460;26.114;2022-12-18T05:39:59;101841.38;;;3.30;100.00
63190;BME280;49286;44.460;26.114;2022-12-18T05:42:24;101945.13;;;3.95;100.00
63190;BME280;49286;44.460;26.114;2022-12-18T05:44:50;101891.94;;;3.71;100.00
63190;BME280;49286;44.460;26.114;2022-12-18T05:47:15;101857.50;;;3.57;100.00
63190;BME280;49286;44.460;26.114;2022-12-18T05:49:41;101840.06;;;3.38;100.00
63190;BME280;49286;44.460;26.114;2022-12-18T05:52:06;101929.91;;;3.85;100.00
63190;BME280;49286;44.460;26.114;2022-12-18T05:54:32;101883.78;;;3.63;100.00
63190;BME280;49286;44.460;26.114;2022-12-18T05:56:58;102002.44;;;4.33;100.00
63190;BME280;49286;44.460;26.114;2022-12-18T05:59:23;101952.38;;;4.19;100.00
63190;BME280;49286;44.460;26.114;2022-12-18T06:01:49;101955.22;;;4.23;100.00
63190;BME280;49286;44.460;26.114;2022-12-18T06:04:14;101857.22;;;3.69;100.00
63190;BME280;49286;44.460;26.114;2022-12-18T06:06:40;101995.31;;;4.45;100.00
63190;BME280;49286;44.460;26.114;2022-12-18T06:09:06;101985.69;;;4.44;100.00
63190;BME280;49286;44.460;26.114;2022-12-18T06:11:38;101989.78;;;4.39;100.00
63190;BME280;49286;44.460;26.114;2022-12-18T06:14:05;102003.75;;;4.41;100.00
63190;BME280;49286;44.460;26.114;2022-12-18T06:16:31;102004.19;;;4.16;100.00
63190;BME280;49286;44.460;26.114;2022-12-18T06:18:58;101866.66;;;3.50;100.00
63190;BME280;49286;44.460;26.114;2022-12-18T06:21:23;102018.38;;;4.39;100.00
63190;BME280;49286;44.460;26.114;2022-12-18T06:23:49;101999.56;;;4.27;100.00
63190;BME280;49286;44.460;26.114;2022-12-18T06:26:15;101981.41;;;4.10;100.00
63190;BME280;49286;44.460;26.114;2022-12-18T06:28:40;102005.13;;;4.34;100.00
63190;BME280;49286;44.460;26.114;2022-12-18T06:31:08;101935.94;;;4.02;100.00
63190;BME280;49286;44.460;26.114;2022-12-18T06:33:34;102043.06;;;4.65;100.00
63190;BME280;49286;44.460;26.114;2022-12-18T06:36:10;102031.69;;;4.45;100.00
63190;BME280;49286;44.460;26.114;2022-12-18T06:38:38;102051.53;;;4.61;100.00
63190;BME280;49286;44.460;26.114;2022-12-18T06:41:13;102050.25;;;4.53;100.00
63190;BME280;49286;44.460;26.114;2022-12-18T06:43:38;102033.88;;;4.37;100.00
63190;BME280;49286;44.460;26.114;2022-12-18T06:46:04;102076.75;;;4.46;100.00
63190;BME280;49286;44.460;26.114;2022-12-18T06:48:31;102041.75;;;4.39;100.00
63190;BME280;49286;44.460;26.114;2022-12-18T06:50:57;101947.97;;;3.84;100.00
63190;BME280;49286;44.460;26.114;2022-12-18T06:53:22;101938.28;;;3.47;100.00
63190;BME280;49286;44.460;26.114;2022-12-18T06:55:48;102078.25;;;4.24;100.00
63190;BME280;49286;44.460;26.114;2022-12-18T06:58:13;102086.50;;;3.84;100.00
63190;BME280;49286;44.460;26.114;2022-12-18T07:00:39;102087.81;;;3.30;100.00
63190;BME280;49286;44.460;26.114;2022-12-18T07:03:04;102050.75;;;3.01;100.00
63190;BME280;49286;44.460;26.114;2022-12-18T07:05:30;101970.72;;;2.46;100.00
63190;BME280;49286;44.460;26.114;2022-12-18T07:07:55;102080.63;;;3.09;100.00
63190;BME280;49286;44.460;26.114;2022-12-18T07:10:21;102116.91;;;3.24;100.00
63190;BME280;49286;44.460;26.114;2022-12-18T07:12:47;101999.53;;;2.82;100.00
63190;BME280;49286;44.460;26.114;2022-12-18T07:15:12;102126.19;;;3.21;100.00
63190;BME280;49286;44.460;26.114;2022-12-18T07:17:38;102037.97;;;2.89;100.00
63190;BME280;49286;44.460;26.114;2022-12-18T07:20:03;102003.03;;;2.98;100.00
63190;BME280;49286;44.460;26.114;2022-12-18T07:22:29;102030.94;;;3.18;100.00
63190;BME280;49286;44.460;26.114;2022-12-18T07:24:55;102149.50;;;3.81;100.00
63190;BME280;49286;44.460;26.114;2022-12-18T07:27:21;102024.59;;;3.28;100.00
63190;BME280;49286;44.460;26.114;2022-12-18T07:29:47;102154.28;;;3.89;100.00
63190;BME280;49286;44.460;26.114;2022-12-18T07:32:12;102005.09;;;3.20;100.00
63190;BME280;49286;44.460;26.114;2022-12-18T07:34:38;102125.13;;;3.94;100.00
63190;BME280;49286;44.460;26.114;2022-12-18T07:37:03;102108.44;;;3.74;100.00
63190;BME280;49286;44.460;26.114;2022-12-18T07:39:28;102164.00;;;3.93;100.00
63190;BME280;49286;44.460;26.114;2022-12-18T07:41:54;102179.53;;;4.08;100.00
63190;BME280;49286;44.460;26.114;2022-12-18T07:44:38;102184.53;;;4.19;100.00
63190;BME280;49286;44.460;26.114;2022-12-18T07:47:04;102169.41;;;4.12;100.00
63190;BME280;49286;44.460;26.114;2022-12-18T07:49:30;102087.59;;;3.56;100.00
63190;BME280;49286;44.460;26.114;2022-12-18T07:51:56;102074.03;;;3.31;100.00
63190;BME280;49286;44.460;26.114;2022-12-18T07:54:23;102059.59;;;2.90;100.00
63190;BME280;49286;44.460;26.114;2022-12-18T07:56:49;102068.75;;;3.29;100.00
63190;BME280;49286;44.460;26.114;2022-12-18T07:59:15;102070.88;;;3.36;100.00
63190;BME280;49286;44.460;26.114;2022-12-18T08:01:41;102071.97;;;3.25;100.00
63190;BME280;49286;44.460;26.114;2022-12-18T08:04:06;102200.69;;;3.99;100.00
63190;BME280;49286;44.460;26.114;2022-12-18T08:06:31;102223.97;;;3.97;100.00
63190;BME280;49286;44.460;26.114;2022-12-18T08:08:57;102125.50;;;3.23;100.00
63190;BME280;49286;44.460;26.114;2022-12-18T08:11:24;102123.41;;;2.88;100.00
63190;BME280;49286;44.460;26.114;2022-12-18T08:13:50;102111.00;;;2.67;100.00
63190;BME280;49286;44.460;26.114;2022-12-18T08:16:15;102246.59;;;3.69;100.00
63190;BME280;49286;44.460;26.114;2022-12-18T08:18:41;102271.28;;;3.92;100.00
63190;BME280;49286;44.460;26.114;2022-12-18T08:21:11;102243.09;;;3.83;100.00
63190;BME280;49286;44.460;26.114;2022-12-18T08:23:37;102283.53;;;3.94;100.00
63190;BME280;49286;44.460;26.114;2022-12-18T08:26:03;102145.88;;;3.17;100.00
63190;BME280;49286;44.460;26.114;2022-12-18T08:28:29;102158.28;;;3.23;100.00
63190;BME280;49286;44.460;26.114;2022-12-18T08:30:54;102257.97;;;3.41;100.00
63190;BME280;49286;44.460;26.114;2022-12-18T08:33:20;102253.31;;;3.50;100.00
63190;BME280;49286;44.460;26.114;2022-12-18T08:35:45;102262.81;;;3.50;100.00
63190;BME280;49286;44.460;26.114;2022-12-18T08:38:11;102137.47;;;2.91;100.00
63190;BME280;49286;44.460;26.114;2022-12-18T08:40:36;102154.84;;;3.07;100.00
63190;BME280;49286;44.460;26.114;2022-12-18T08:43:02;102153.66;;;3.02;100.00
63190;BME280;49286;44.460;26.114;2022-12-18T08:46:00;102287.06;;;3.50;100.00
63190;BME280;49286;44.460;26.114;2022-12-18T08:48:25;102236.41;;;3.57;100.00
63190;BME280;49286;44.460;26.114;2022-12-18T08:50:57;102270.38;;;3.76;100.00
63190;BME280;49286;44.460;26.114;2022-12-18T08:53:27;102261.69;;;3.91;100.00
63190;BME280;49286;44.460;26.114;2022-12-18T08:55:52;102281.13;;;3.97;100.00
63190;BME280;49286;44.460;26.114;2022-12-18T08:58:18;102281.94;;;3.96;100.00
63190;BME280;49286;44.460;26.114;2022-12-18T09:00:44;102177.00;;;3.32;100.00
63190;BME280;49286;44.460;26.114;2022-12-18T09:03:14;102276.28;;;4.04;100.00
63190;BME280;49286;44.460;26.114;2022-12-18T09:05:40;102279.72;;;4.19;100.00
63190;BME280;49286;44.460;26.114;2022-12-18T09:08:05;102124.50;;;3.06;100.00
63190;BME280;49286;44.460;26.114;2022-12-18T09:10:31;102233.22;;;3.92;100.00
63190;BME280;49286;44.460;26.114;2022-12-18T09:12:57;102156.31;;;3.63;100.00
63190;BME280;49286;44.460;26.114;2022-12-18T09:15:22;102252.84;;;4.18;100.00
63190;BME280;49286;44.460;26.114;2022-12-18T09:17:48;102122.34;;;2.99;100.00
63190;BME280;49286;44.460;26.114;2022-12-18T09:20:15;102122.59;;;3.33;100.00
63190;BME280;49286;44.460;26.114;2022-12-18T09:22:41;102207.41;;;3.95;100.00
63190;BME280;49286;44.460;26.114;2022-12-18T09:25:06;102245.00;;;4.17;100.00
63190;BME280;49286;44.460;26.114;2022-12-18T09:27:35;102214.94;;;3.91;100.00
63190;BME280;49286;44.460;26.114;2022-12-18T09:30:01;102083.44;;;3.29;100.00
63190;BME280;49286;44.460;26.114;2022-12-18T09:32:26;102246.47;;;4.28;100.00
63190;BME280;49286;44.460;26.114;2022-12-18T09:34:52;102245.03;;;4.33;100.00
63190;BME280;49286;44.460;26.114;2022-12-18T09:37:17;102110.84;;;3.55;100.00
63190;BME280;49286;44.460;26.114;2022-12-18T09:39:43;102153.66;;;3.78;100.00
63190;BME280;49286;44.460;26.114;2022-12-18T09:42:20;102084.63;;;3.50;100.00
63190;BME280;49286;44.460;26.114;2022-12-18T09:44:52;102221.91;;;4.38;100.00
63190;BME280;49286;44.460;26.114;2022-12-18T09:47:26;102226.03;;;4.34;100.00
63190;BME280;49286;44.460;26.114;2022-12-18T09:50:00;102103.78;;;3.52;100.00
63190;BME280;49286;44.460;26.114;2022-12-18T09:52:43;102201.25;;;3.47;100.00
63190;BME280;49286;44.460;26.114;2022-12-18T09:55:28;102218.78;;;3.97;100.00
63190;BME280;49286;44.460;26.114;2022-12-18T09:58:02;102239.50;;;3.96;100.00
63190;BME280;49286;44.460;26.114;2022-12-18T10:00:29;102196.94;;;3.48;100.00
63190;BME280;49286;44.460;26.114;2022-12-18T10:03:02;102222.16;;;3.50;100.00
63190;BME280;49286;44.460;26.114;2022-12-18T10:08:02;102145.97;;;3.19;100.00
63190;BME280;49286;44.460;26.114;2022-12-18T10:10:48;102245.41;;;3.78;100.00
63190;BME280;49286;44.460;26.114;2022-12-18T10:19:13;102256.72;;;3.64;100.00
63190;BME280;49286;44.460;26.114;2022-12-18T10:27:23;102161.75;;;2.07;100.00
63190;BME280;49286;44.460;26.114;2022-12-18T10:29:50;102253.72;;;2.42;100.00
63190;BME280;49286;44.460;26.114;2022-12-18T10:32:23;102261.16;;;2.51;100.00
63190;BME280;49286;44.460;26.114;2022-12-18T10:34:53;102253.03;;;2.60;100.00
63190;BME280;49286;44.460;26.114;2022-12-18T10:37:25;102285.25;;;2.63;100.00
63190;BME280;49286;44.460;26.114;2022-12-18T10:40:13;102135.53;;;2.16;100.00
63190;BME280;49286;44.460;26.114;2022-12-18T10:42:40;102128.91;;;2.06;100.00
63190;BME280;49286;44.460;26.114;2022-12-18T10:45:16;102131.53;;;2.21;100.00
63190;BME280;49286;44.460;26.114;2022-12-18T10:47:46;102252.25;;;2.89;100.00
63190;BME280;49286;44.460;26.114;2022-12-18T10:50:32;102277.50;;;3.06;100.00
63190;BME280;49286;44.460;26.114;2022-12-18T10:53:01;102270.88;;;2.96;100.00
63190;BME280;49286;44.460;26.114;2022-12-18T10:55:41;102269.94;;;2.81;100.00
63190;BME280;49286;44.460;26.114;2022-12-18T10:58:29;102273.16;;;2.77;100.00
63190;BME280;49286;44.460;26.114;2022-12-18T11:01:16;102168.47;;;2.32;100.00
63190;BME280;49286;44.460;26.114;2022-12-18T11:06:17;102128.94;;;1.80;100.00
63190;BME280;49286;44.460;26.114;2022-12-18T11:08:57;102285.22;;;2.77;100.00
63190;BME280;49286;44.460;26.114;2022-12-18T11:11:24;102284.38;;;2.91;100.00
63190;BME280;49286;44.460;26.114;2022-12-18T11:14:13;102292.72;;;2.72;100.00
63190;BME280;49286;44.460;26.114;2022-12-18T11:16:47;102299.63;;;2.86;100.00
63190;BME280;49286;44.460;26.114;2022-12-18T11:19:36;102260.59;;;2.42;100.00
63190;BME280;49286;44.460;26.114;2022-12-18T11:22:20;102306.59;;;2.87;100.00
63190;BME280;49286;44.460;26.114;2022-12-18T11:25:01;102301.75;;;2.79;100.00
63190;BME280;49286;44.460;26.114;2022-12-18T11:27:28;102296.13;;;2.58;100.00
63190;BME280;49286;44.460;26.114;2022-12-18T11:33:12;102190.28;;;2.22;100.00
63190;BME280;49286;44.460;26.114;2022-12-18T11:35:54;102282.88;;;2.53;100.00
63190;BME280;49286;44.460;26.114;2022-12-18T11:38:27;102206.16;;;2.14;100.00
63190;BME280;49286;44.460;26.114;2022-12-18T11:43:53;102170.88;;;1.74;100.00
63190;BME280;49286;44.460;26.114;2022-12-18T11:46:33;102275.03;;;2.80;100.00
63190;BME280;49286;44.460;26.114;2022-12-18T11:49:22;102303.88;;;2.99;100.00
63190;BME280;49286;44.460;26.114;2022-12-18T11:54:16;102304.56;;;2.96;100.00
63190;BME280;49286;44.460;26.114;2022-12-18T11:57:25;102315.69;;;3.09;100.00
63190;BME280;49286;44.460;26.114;2022-12-18T11:59:54;102191.25;;;2.38;100.00
63190;BME280;49286;44.460;26.114;2022-12-18T12:11:06;102324.84;;;2.89;100.00
63190;BME280;49286;44.460;26.114;2022-12-18T12:13:41;102308.31;;;2.87;100.00
63190;BME280;49286;44.460;26.114;2022-12-18T12:16:17;102313.66;;;2.90;100.00
63190;BME280;49286;44.460;26.114;2022-12-18T12:29:21;102341.59;;;3.37;100.00
63190;BME280;49286;44.460;26.114;2022-12-18T12:39:52;102352.53;;;3.46;100.00
63190;BME280;49286;44.460;26.114;2022-12-18T12:42:44;102358.53;;;3.30;100.00
63190;BME280;49286;44.460;26.114;2022-12-18T12:45:58;102323.56;;;3.10;100.00
63190;BME280;49286;44.460;26.114;2022-12-18T12:48:40;102360.03;;;3.27;100.00
63190;BME280;49286;44.460;26.114;2022-12-18T12:51:21;102278.50;;;2.80;100.00
63190;BME280;49286;44.460;26.114;2022-12-18T12:53:48;102366.50;;;3.33;100.00
63190;BME280;49286;44.460;26.114;2022-12-18T12:56:16;102227.03;;;2.30;100.00
63190;BME280;49286;44.460;26.114;2022-12-18T12:59:08;102391.06;;;3.25;100.00
63190;BME280;49286;44.460;26.114;2022-12-18T13:02:39;102389.94;;;3.07;100.00
63190;BME280;49286;44.460;26.114;2022-12-18T13:07:39;102285.09;;;2.47;100.00
63190;BME280;49286;44.460;26.114;2022-12-18T13:13:12;102406.16;;;2.63;100.00
63190;BME280;49286;44.460;26.114;2022-12-18T13:18:26;102416.81;;;2.67;100.00
63190;BME280;49286;44.460;26.114;2022-12-18T13:25:50;102295.50;;;2.20;100.00
63190;BME280;49286;44.460;26.114;2022-12-18T13:28:20;102290.38;;;2.22;100.00
63190;BME280;49286;44.460;26.114;2022-12-18T13:30:56;102424.84;;;2.99;100.00
63190;BME280;49286;44.460;26.114;2022-12-18T13:40:59;102341.50;;;2.38;100.00
63190;BME280;49286;44.460;26.114;2022-12-18T13:46:04;102465.25;;;2.95;100.00
63190;BME280;49286;44.460;26.114;2022-12-18T13:48:33;102421.00;;;2.79;100.00
63190;BME280;49286;44.460;26.114;2022-12-18T13:51:05;102331.53;;;1.52;100.00
63190;BME280;49286;44.460;26.114;2022-12-18T13:53:54;102472.84;;;2.79;100.00
63190;BME280;49286;44.460;26.114;2022-12-18T13:56:26;102473.63;;;2.78;100.00
63190;BME280;49286;44.460;26.114;2022-12-18T13:59:18;102401.84;;;2.10;100.00
63190;BME280;49286;44.460;26.114;2022-12-18T14:04:32;102470.63;;;2.98;100.00
63190;BME280;49286;44.460;26.114;2022-12-18T14:07:07;102370.19;;;2.41;100.00
63190;BME280;49286;44.460;26.114;2022-12-18T14:09:40;102469.22;;;2.90;100.00
63190;BME280;49286;44.460;26.114;2022-12-18T14:12:15;102360.47;;;1.85;100.00
63190;BME280;49286;44.460;26.114;2022-12-18T14:15:00;102491.56;;;1.84;100.00
63190;BME280;49286;44.460;26.114;2022-12-18T14:17:26;102351.47;;;1.28;100.00
63190;BME280;49286;44.460;26.114;2022-12-18T14:19:51;102467.44;;;1.97;100.00
63190;BME280;49286;44.460;26.114;2022-12-18T14:22:23;102367.72;;;1.64;100.00
63190;BME280;49286;44.460;26.114;2022-12-18T14:27:45;102522.69;;;2.88;100.00
63190;BME280;49286;44.460;26.114;2022-12-18T14:35:42;102434.94;;;2.27;100.00
63190;BME280;49286;44.460;26.114;2022-12-18T14:38:30;102542.22;;;2.69;100.00
63190;BME280;49286;44.460;26.114;2022-12-18T14:40:58;102547.13;;;2.91;100.00
63190;BME280;49286;44.460;26.114;2022-12-18T14:43:26;102410.50;;;2.10;100.00
63190;BME280;49286;44.460;26.114;2022-12-18T14:45:52;102530.06;;;2.82;100.00
63190;BME280;49286;44.460;26.114;2022-12-18T14:48:40;102541.75;;;2.88;100.00
63190;BME280;49286;44.460;26.114;2022-12-18T14:51:16;102399.25;;;2.10;100.00
63190;BME280;49286;44.460;26.114;2022-12-18T14:53:44;102541.53;;;2.85;100.00